sensor_id;sensor_type;location;lat;lon;timestamp;pressure;altitude;pressure_sealevel;temperature;humidity
40155;BME280;25875;48.202;16.334;2024-02-16T00:00:52;99525.72;;;7.62;67.69
40155;BME280;25875;48.202;16.334;2024-02-16T00:03:19;99529.16;;;7.64;67.71
40155;BME280;25875;48.202;16.334;2024-02-16T00:05:47;99519.59;;;7.61;67.66
40155;BME280;25875;48.202;16.334;2024-02-16T00:08:17;99521.38;;;7.61;67.81
40155;BME280;25875;48.202;16.334;2024-02-16T00:10:45;99534.00;;;7.53;68.20
40155;BME280;25875;48.202;16.334;2024-02-16T00:13:12;99521.63;;;7.55;67.80
40155;BME280;25875;48.202;16.334;2024-02-16T00:15:39;99522.97;;;7.43;68.19
40155;BME280;25875;48.202;16.334;2024-02-16T00:18:05;99524.69;;;7.44;68.25
40155;BME280;25875;48.202;16.334;2024-02-16T00:20:32;99505.03;;;7.29;68.09
40155;BME280;25875;48.202;16.334;2024-02-16T00:22:59;99515.56;;;7.53;67.80
40155;BME280;25875;48.202;16.334;2024-02-16T00:25:26;99520.91;;;7.51;67.79
40155;BME280;25875;48.202;16.334;2024-02-16T00:27:54;99518.44;;;7.47;68.00
40155;BME280;25875;48.202;16.334;2024-02-16T00:30:22;99518.25;;;7.51;67.85
40155;BME280;25875;48.202;16.334;2024-02-16T00:32:48;99513.78;;;7.53;67.68
40155;BME280;25875;48.202;16.334;2024-02-16T00:35:15;99508.88;;;7.44;67.76
40155;BME280;25875;48.202;16.334;2024-02-16T00:37:43;99511.31;;;7.49;67.58
40155;BME280;25875;48.202;16.334;2024-02-16T00:40:11;99515.13;;;7.42;67.95
40155;BME280;25875;48.202;16.334;2024-02-16T00:42:38;99466.63;;;7.00;68.18
40155;BME280;25875;48.202;16.334;2024-02-16T00:45:07;99515.03;;;7.21;68.78
40155;BME280;25875;48.202;16.334;2024-02-16T00:47:34;99509.97;;;7.15;68.93
40155;BME280;25875;48.202;16.334;2024-02-16T00:50:01;99504.78;;;7.14;68.91
40155;BME280;25875;48.202;16.334;2024-02-16T00:52:29;99506.97;;;7.02;69.54
40155;BME280;25875;48.202;16.334;2024-02-16T00:54:55;99499.19;;;7.21;68.69
40155;BME280;25875;48.202;16.334;2024-02-16T00:57:23;99497.13;;;7.29;68.24
40155;BME280;25875;48.202;16.334;2024-02-16T00:59:49;99497.09;;;7.07;69.06
40155;BME280;25875;48.202;16.334;2024-02-16T01:02:17;99481.41;;;7.04;69.26
40155;BME280;25875;48.202;16.334;2024-02-16T01:04:44;99487.09;;;6.94;69.76
40155;BME280;25875;48.202;16.334;2024-02-16T01:07:12;99484.69;;;6.88;70.08
40155;BME280;25875;48.202;16.334;2024-02-16T01:09:38;99385.97;;;6.28;69.87
40155;BME280;25875;48.202;16.334;2024-02-16T01:12:05;99488.19;;;6.88;69.84
40155;BME280;25875;48.202;16.334;2024-02-16T01:14:32;99480.47;;;6.84;70.14
40155;BME280;25875;48.202;16.334;2024-02-16T01:16:58;99462.63;;;6.67;70.50
40155;BME280;25875;48.202;16.334;2024-02-16T01:19:26;99476.00;;;6.86;70.04
40155;BME280;25875;48.202;16.334;2024-02-16T01:21:53;99476.44;;;6.97;69.58
40155;BME280;25875;48.202;16.334;2024-02-16T01:24:23;99476.66;;;6.91;69.52
40155;BME280;25875;48.202;16.334;2024-02-16T01:26:49;99485.13;;;6.75;70.27
40155;BME280;25875;48.202;16.334;2024-02-16T01:29:16;99481.38;;;6.83;70.04
40155;BME280;25875;48.202;16.334;2024-02-16T01:31:43;99361.72;;;6.20;69.50
40155;BME280;25875;48.202;16.334;2024-02-16T01:34:09;99472.88;;;6.74;70.13
40155;BME280;25875;48.202;16.334;2024-02-16T01:36:37;99467.97;;;6.89;69.76
40155;BME280;25875;48.202;16.334;2024-02-16T01:39:04;99473.72;;;6.75;70.13
40155;BME280;25875;48.202;16.334;2024-02-16T01:41:32;99475.72;;;6.68;70.49
40155;BME280;25875;48.202;16.334;2024-02-16T01:43:59;99467.44;;;6.79;70.48
40155;BME280;25875;48.202;16.334;2024-02-16T01:46:26;99466.19;;;6.89;69.70
40155;BME280;25875;48.202;16.334;2024-02-16T01:48:53;99466.94;;;6.93;69.34
40155;BME280;25875;48.202;16.334;2024-02-16T01:51:22;99470.84;;;6.83;69.87
40155;BME280;25875;48.202;16.334;2024-02-16T01:53:50;99462.38;;;6.73;70.43
40155;BME280;25875;48.202;16.334;2024-02-16T01:56:18;99460.91;;;6.66;70.60
40155;BME280;25875;48.202;16.334;2024-02-16T01:58:46;99458.97;;;6.71;70.04
40155;BME280;25875;48.202;16.334;2024-02-16T02:01:13;99464.22;;;6.71;70.11
40155;BME280;25875;48.202;16.334;2024-02-16T02:03:39;99460.63;;;6.73;69.88
40155;BME280;25875;48.202;16.334;2024-02-16T02:06:06;99459.94;;;6.68;70.04
40155;BME280;25875;48.202;16.334;2024-02-16T02:08:33;99459.25;;;6.63;70.12
40155;BME280;25875;48.202;16.334;2024-02-16T02:11:01;99453.56;;;6.51;70.58
40155;BME280;25875;48.202;16.334;2024-02-16T02:13:28;99448.31;;;6.74;69.87
40155;BME280;25875;48.202;16.334;2024-02-16T02:15:56;99446.28;;;6.82;69.40
40155;BME280;25875;48.202;16.334;2024-02-16T02:18:24;99439.78;;;6.67;69.66
40155;BME280;25875;48.202;16.334;2024-02-16T02:20:51;99437.66;;;6.77;69.47
40155;BME280;25875;48.202;16.334;2024-02-16T02:23:20;99398.16;;;6.54;69.33
40155;BME280;25875;48.202;16.334;2024-02-16T02:25:47;99427.91;;;6.79;69.06
40155;BME280;25875;48.202;16.334;2024-02-16T02:28:14;99431.25;;;6.84;68.84
40155;BME280;25875;48.202;16.334;2024-02-16T02:30:42;99421.75;;;6.80;68.94
40155;BME280;25875;48.202;16.334;2024-02-16T02:33:10;99393.75;;;6.54;69.09
40155;BME280;25875;48.202;16.334;2024-02-16T02:35:39;99426.97;;;6.58;69.69
40155;BME280;25875;48.202;16.334;2024-02-16T02:38:05;99418.72;;;6.67;69.46
40155;BME280;25875;48.202;16.334;2024-02-16T02:40:33;99415.97;;;6.70;68.97
40155;BME280;25875;48.202;16.334;2024-02-16T02:43:00;99412.19;;;6.54;69.52
40155;BME280;25875;48.202;16.334;2024-02-16T02:45:27;99409.25;;;6.62;69.42
40155;BME280;25875;48.202;16.334;2024-02-16T02:47:53;99412.59;;;6.67;69.13
40155;BME280;25875;48.202;16.334;2024-02-16T02:50:20;99393.88;;;6.28;69.34
40155;BME280;25875;48.202;16.334;2024-02-16T02:52:46;99417.34;;;6.34;69.99
40155;BME280;25875;48.202;16.334;2024-02-16T02:55:13;99412.25;;;6.53;69.55
40155;BME280;25875;48.202;16.334;2024-02-16T02:57:41;99414.25;;;6.46;69.68
40155;BME280;25875;48.202;16.334;2024-02-16T03:00:09;99412.13;;;6.32;70.11
40155;BME280;25875;48.202;16.334;2024-02-16T03:02:36;99409.84;;;6.47;69.68
40155;BME280;25875;48.202;16.334;2024-02-16T03:05:02;99406.94;;;6.54;69.29
40155;BME280;25875;48.202;16.334;2024-02-16T03:07:29;99410.59;;;6.50;69.35
40155;BME280;25875;48.202;16.334;2024-02-16T03:09:56;99411.16;;;6.35;70.01
40155;BME280;25875;48.202;16.334;2024-02-16T03:12:22;99407.66;;;6.34;70.06
40155;BME280;25875;48.202;16.334;2024-02-16T03:14:50;99412.41;;;6.48;69.32
40155;BME280;25875;48.202;16.334;2024-02-16T03:17:17;99408.13;;;6.22;70.64
40155;BME280;25875;48.202;16.334;2024-02-16T03:19:44;99412.31;;;6.28;70.48
40155;BME280;25875;48.202;16.334;2024-02-16T03:22:10;99402.56;;;6.30;70.23
40155;BME280;25875;48.202;16.334;2024-02-16T03:24:38;99410.13;;;6.39;69.77
40155;BME280;25875;48.202;16.334;2024-02-16T03:27:04;99412.75;;;6.39;69.79
40155;BME280;25875;48.202;16.334;2024-02-16T03:29:31;99416.47;;;6.33;70.05
40155;BME280;25875;48.202;16.334;2024-02-16T03:31:59;99405.88;;;6.12;70.87
40155;BME280;25875;48.202;16.334;2024-02-16T03:34:26;99420.25;;;6.26;70.40
40155;BME280;25875;48.202;16.334;2024-02-16T03:36:53;99415.03;;;6.25;70.40
40155;BME280;25875;48.202;16.334;2024-02-16T03:39:20;99407.22;;;6.23;70.01
40155;BME280;25875;48.202;16.334;2024-02-16T03:41:46;99407.09;;;6.26;70.03
40155;BME280;25875;48.202;16.334;2024-02-16T03:44:14;99412.19;;;6.31;69.82
40155;BME280;25875;48.202;16.334;2024-02-16T03:46:41;99412.81;;;6.37;69.51
40155;BME280;25875;48.202;16.334;2024-02-16T03:49:10;99413.84;;;6.33;69.67
40155;BME280;25875;48.202;16.334;2024-02-16T03:51:36;99420.09;;;6.31;69.71
40155;BME280;25875;48.202;16.334;2024-02-16T03:54:03;99421.69;;;6.35;69.61
40155;BME280;25875;48.202;16.334;2024-02-16T03:56:30;99429.53;;;6.36;69.51
40155;BME280;25875;48.202;16.334;2024-02-16T03:58:57;99422.25;;;6.20;69.90
40155;BME280;25875;48.202;16.334;2024-02-16T04:01:24;99421.97;;;6.27;70.10
40155;BME280;25875;48.202;16.334;2024-02-16T04:03:50;99422.09;;;6.24;72.47
40155;BME280;25875;48.202;16.334;2024-02-16T04:06:18;99418.13;;;6.13;72.64
40155;BME280;25875;48.202;16.334;2024-02-16T04:08:45;99424.59;;;6.27;70.91
40155;BME280;25875;48.202;16.334;2024-02-16T04:11:13;99422.25;;;6.20;70.50
40155;BME280;25875;48.202;16.334;2024-02-16T04:13:41;99428.47;;;6.17;70.30
40155;BME280;25875;48.202;16.334;2024-02-16T04:16:08;99425.84;;;6.17;70.13
40155;BME280;25875;48.202;16.334;2024-02-16T04:18:34;99430.03;;;6.23;70.01
40155;BME280;25875;48.202;16.334;2024-02-16T04:21:01;99429.22;;;6.21;69.65
40155;BME280;25875;48.202;16.334;2024-02-16T04:23:29;99431.75;;;6.24;69.25
40155;BME280;25875;48.202;16.334;2024-02-16T04:25:56;99437.88;;;6.24;69.39
40155;BME280;25875;48.202;16.334;2024-02-16T04:28:22;99438.00;;;6.21;69.26
40155;BME280;25875;48.202;16.334;2024-02-16T04:30:49;99432.56;;;6.26;69.02
40155;BME280;25875;48.202;16.334;2024-02-16T04:33:15;99436.03;;;6.26;68.90
40155;BME280;25875;48.202;16.334;2024-02-16T04:35:42;99436.72;;;6.08;69.44
40155;BME280;25875;48.202;16.334;2024-02-16T04:38:12;99440.94;;;6.12;69.42
40155;BME280;25875;48.202;16.334;2024-02-16T04:40:40;99439.94;;;6.16;69.33
40155;BME280;25875;48.202;16.334;2024-02-16T04:43:06;99441.69;;;6.16;69.30
40155;BME280;25875;48.202;16.334;2024-02-16T04:45:33;99433.06;;;6.12;69.25
40155;BME280;25875;48.202;16.334;2024-02-16T04:48:03;99359.59;;;5.58;69.23
40155;BME280;25875;48.202;16.334;2024-02-16T04:50:31;99437.78;;;6.02;69.49
40155;BME280;25875;48.202;16.334;2024-02-16T04:52:58;99436.06;;;6.01;69.65
40155;BME280;25875;48.202;16.334;2024-02-16T04:55:25;99443.84;;;6.04;69.36
40155;BME280;25875;48.202;16.334;2024-02-16T04:57:52;99438.53;;;6.06;69.50
40155;BME280;25875;48.202;16.334;2024-02-16T05:00:19;99442.06;;;6.05;69.47
40155;BME280;25875;48.202;16.334;2024-02-16T05:02:46;99436.13;;;6.00;69.76
40155;BME280;25875;48.202;16.334;2024-02-16T05:05:12;99438.59;;;6.04;69.24
40155;BME280;25875;48.202;16.334;2024-02-16T05:07:41;99440.56;;;5.73;70.54
40155;BME280;25875;48.202;16.334;2024-02-16T05:10:09;99438.44;;;5.84;70.00
40155;BME280;25875;48.202;16.334;2024-02-16T05:12:36;99197.69;;;4.25;69.64
40155;BME280;25875;48.202;16.334;2024-02-16T05:15:05;99437.91;;;5.99;69.32
40155;BME280;25875;48.202;16.334;2024-02-16T05:17:32;99439.72;;;5.97;69.29
40155;BME280;25875;48.202;16.334;2024-02-16T05:19:58;99436.06;;;6.01;69.39
40155;BME280;25875;48.202;16.334;2024-02-16T05:22:25;99440.41;;;6.02;69.55
40155;BME280;25875;48.202;16.334;2024-02-16T05:24:52;99441.31;;;6.01;69.22
40155;BME280;25875;48.202;16.334;2024-02-16T05:27:18;99428.97;;;6.03;69.16
40155;BME280;25875;48.202;16.334;2024-02-16T05:29:45;99432.41;;;6.05;69.11
40155;BME280;25875;48.202;16.334;2024-02-16T05:32:13;99426.25;;;6.06;68.94
40155;BME280;25875;48.202;16.334;2024-02-16T05:34:39;99428.81;;;6.08;68.93
40155;BME280;25875;48.202;16.334;2024-02-16T05:37:07;99436.81;;;6.05;68.97
40155;BME280;25875;48.202;16.334;2024-02-16T05:39:36;99432.56;;;6.01;69.28
40155;BME280;25875;48.202;16.334;2024-02-16T05:42:19;99435.00;;;6.07;69.02
40155;BME280;25875;48.202;16.334;2024-02-16T05:44:46;99434.25;;;6.03;69.13
40155;BME280;25875;48.202;16.334;2024-02-16T05:47:14;99443.84;;;6.04;69.10
40155;BME280;25875;48.202;16.334;2024-02-16T05:49:41;99437.78;;;6.02;69.16
40155;BME280;25875;48.202;16.334;2024-02-16T05:52:07;99441.69;;;5.91;69.57
40155;BME280;25875;48.202;16.334;2024-02-16T05:54:47;99446.91;;;5.92;69.55
40155;BME280;25875;48.202;16.334;2024-02-16T05:57:15;99430.06;;;5.98;69.45
40155;BME280;25875;48.202;16.334;2024-02-16T05:59:43;99434.25;;;6.03;69.12
40155;BME280;25875;48.202;16.334;2024-02-16T06:02:10;99440.53;;;5.99;69.26
40155;BME280;25875;48.202;16.334;2024-02-16T06:04:39;99447.50;;;6.00;69.18
40155;BME280;25875;48.202;16.334;2024-02-16T06:07:05;99441.28;;;6.03;69.05
40155;BME280;25875;48.202;16.334;2024-02-16T06:09:32;99444.72;;;6.05;69.21
40155;BME280;25875;48.202;16.334;2024-02-16T06:12:01;99424.25;;;5.88;69.04
40155;BME280;25875;48.202;16.334;2024-02-16T06:14:30;99444.38;;;5.89;69.57
40155;BME280;25875;48.202;16.334;2024-02-16T06:16:56;99414.16;;;5.76;69.39
40155;BME280;25875;48.202;16.334;2024-02-16T06:19:23;99443.22;;;5.98;69.21
40155;BME280;25875;48.202;16.334;2024-02-16T06:21:52;99444.97;;;5.97;69.03
40155;BME280;25875;48.202;16.334;2024-02-16T06:24:19;99449.13;;;6.04;68.77
40155;BME280;25875;48.202;16.334;2024-02-16T06:26:46;99456.94;;;6.06;68.63
40155;BME280;25875;48.202;16.334;2024-02-16T06:29:13;99451.81;;;6.03;68.89
40155;BME280;25875;48.202;16.334;2024-02-16T06:31:40;99458.84;;;6.02;68.75
40155;BME280;25875;48.202;16.334;2024-02-16T06:34:06;99461.47;;;6.02;68.86
40155;BME280;25875;48.202;16.334;2024-02-16T06:36:34;99469.34;;;6.02;68.92
40155;BME280;25875;48.202;16.334;2024-02-16T06:39:02;99387.75;;;5.54;68.81
40155;BME280;25875;48.202;16.334;2024-02-16T06:41:29;99457.88;;;6.05;68.93
40155;BME280;25875;48.202;16.334;2024-02-16T06:43:56;99465.75;;;6.05;68.91
40155;BME280;25875;48.202;16.334;2024-02-16T06:46:22;99466.03;;;5.97;69.13
40155;BME280;25875;48.202;16.334;2024-02-16T06:48:50;99473.66;;;6.05;68.75
40155;BME280;25875;48.202;16.334;2024-02-16T06:51:17;99488.19;;;5.90;69.31
40155;BME280;25875;48.202;16.334;2024-02-16T06:53:44;99481.09;;;5.92;69.70
40155;BME280;25875;48.202;16.334;2024-02-16T06:56:12;99489.66;;;5.99;69.00
40155;BME280;25875;48.202;16.334;2024-02-16T06:58:39;99491.22;;;6.04;68.78
40155;BME280;25875;48.202;16.334;2024-02-16T07:01:07;99477.19;;;6.04;68.75
40155;BME280;25875;48.202;16.334;2024-02-16T07:03:34;99491.09;;;6.07;68.96
40155;BME280;25875;48.202;16.334;2024-02-16T07:06:02;99410.28;;;5.61;68.89
40155;BME280;25875;48.202;16.334;2024-02-16T07:08:29;99488.31;;;6.12;68.62
40155;BME280;25875;48.202;16.334;2024-02-16T07:10:55;99490.03;;;6.13;68.53
40155;BME280;25875;48.202;16.334;2024-02-16T07:13:23;99497.22;;;6.08;68.76
40155;BME280;25875;48.202;16.334;2024-02-16T07:15:50;99491.06;;;6.09;68.80
40155;BME280;25875;48.202;16.334;2024-02-16T07:18:16;99496.16;;;6.14;68.78
40155;BME280;25875;48.202;16.334;2024-02-16T07:20:43;99492.81;;;6.08;69.03
40155;BME280;25875;48.202;16.334;2024-02-16T07:23:10;99485.69;;;6.12;69.29
40155;BME280;25875;48.202;16.334;2024-02-16T07:25:37;99476.72;;;6.18;69.09
40155;BME280;25875;48.202;16.334;2024-02-16T07:28:04;99478.38;;;6.20;69.19
40155;BME280;25875;48.202;16.334;2024-02-16T07:30:32;99473.53;;;6.33;68.93
40155;BME280;25875;48.202;16.334;2024-02-16T07:32:59;99474.91;;;6.43;68.52
40155;BME280;25875;48.202;16.334;2024-02-16T07:35:26;99469.03;;;6.60;68.09
40155;BME280;25875;48.202;16.334;2024-02-16T07:37:52;99475.38;;;6.78;67.76
40155;BME280;25875;48.202;16.334;2024-02-16T07:40:19;99477.81;;;6.84;67.29
40155;BME280;25875;48.202;16.334;2024-02-16T07:42:46;99416.88;;;6.46;66.91
40155;BME280;25875;48.202;16.334;2024-02-16T07:45:13;99482.56;;;6.97;66.69
40155;BME280;25875;48.202;16.334;2024-02-16T07:47:41;99476.81;;;7.10;66.30
40155;BME280;25875;48.202;16.334;2024-02-16T07:50:08;99472.91;;;7.20;66.03
40155;BME280;25875;48.202;16.334;2024-02-16T07:52:37;99479.66;;;7.27;65.81
40155;BME280;25875;48.202;16.334;2024-02-16T07:55:04;99478.53;;;7.32;64.94
40155;BME280;25875;48.202;16.334;2024-02-16T07:57:31;99345.75;;;6.69;64.98
40155;BME280;25875;48.202;16.334;2024-02-16T07:59:58;99472.38;;;7.55;64.68
40155;BME280;25875;48.202;16.334;2024-02-16T08:02:24;99469.84;;;7.74;64.19
40155;BME280;25875;48.202;16.334;2024-02-16T08:04:52;99470.44;;;7.81;63.82
40155;BME280;25875;48.202;16.334;2024-02-16T08:07:19;99462.06;;;7.91;63.67
40155;BME280;25875;48.202;16.334;2024-02-16T08:09:46;99061.00;;;5.74;62.74
40155;BME280;25875;48.202;16.334;2024-02-16T08:12:13;99464.81;;;8.29;62.62
40155;BME280;25875;48.202;16.334;2024-02-16T08:14:42;99463.50;;;8.39;62.72
40155;BME280;25875;48.202;16.334;2024-02-16T08:17:10;99466.84;;;8.43;62.56
40155;BME280;25875;48.202;16.334;2024-02-16T08:19:37;99469.66;;;8.58;61.34
40155;BME280;25875;48.202;16.334;2024-02-16T08:22:07;99456.69;;;8.73;61.20
40155;BME280;25875;48.202;16.334;2024-02-16T08:24:34;99467.13;;;8.94;60.85
40155;BME280;25875;48.202;16.334;2024-02-16T08:27:01;99456.03;;;9.05;60.45
40155;BME280;25875;48.202;16.334;2024-02-16T08:29:28;99457.31;;;9.15;59.54
40155;BME280;25875;48.202;16.334;2024-02-16T08:31:55;99456.06;;;9.24;60.68
40155;BME280;25875;48.202;16.334;2024-02-16T08:34:22;99463.25;;;9.58;60.11
40155;BME280;25875;48.202;16.334;2024-02-16T08:36:51;99414.06;;;9.35;59.66
40155;BME280;25875;48.202;16.334;2024-02-16T08:39:19;99453.06;;;9.68;59.05
40155;BME280;25875;48.202;16.334;2024-02-16T08:41:46;99448.84;;;9.81;59.11
40155;BME280;25875;48.202;16.334;2024-02-16T08:44:13;99391.88;;;9.56;58.37
40155;BME280;25875;48.202;16.334;2024-02-16T08:46:40;99444.34;;;10.00;58.85
40155;BME280;25875;48.202;16.334;2024-02-16T08:49:07;99395.28;;;9.76;57.46
40155;BME280;25875;48.202;16.334;2024-02-16T08:51:35;99450.81;;;10.45;58.14
40155;BME280;25875;48.202;16.334;2024-02-16T08:54:02;99409.97;;;10.49;57.13
40155;BME280;25875;48.202;16.334;2024-02-16T08:56:31;99456.16;;;10.60;56.15
40155;BME280;25875;48.202;16.334;2024-02-16T08:59:00;99456.31;;;10.57;56.08
40155;BME280;25875;48.202;16.334;2024-02-16T09:01:30;99460.34;;;10.65;55.98
40155;BME280;25875;48.202;16.334;2024-02-16T09:03:57;99451.03;;;10.57;56.15
40155;BME280;25875;48.202;16.334;2024-02-16T09:06:24;99450.00;;;10.60;55.70
40155;BME280;25875;48.202;16.334;2024-02-16T09:08:51;99436.00;;;10.74;54.91
40155;BME280;25875;48.202;16.334;2024-02-16T09:11:18;99453.34;;;10.97;55.37
40155;BME280;25875;48.202;16.334;2024-02-16T09:13:46;99445.63;;;10.92;54.80
40155;BME280;25875;48.202;16.334;2024-02-16T09:16:13;99453.25;;;10.98;54.62
40155;BME280;25875;48.202;16.334;2024-02-16T09:18:40;99447.00;;;10.99;54.70
40155;BME280;25875;48.202;16.334;2024-02-16T09:21:07;99442.22;;;11.06;54.90
40155;BME280;25875;48.202;16.334;2024-02-16T09:23:35;99456.75;;;11.14;54.16
40155;BME280;25875;48.202;16.334;2024-02-16T09:26:02;99456.84;;;11.29;54.12
40155;BME280;25875;48.202;16.334;2024-02-16T09:28:29;99455.97;;;11.44;53.86
40155;BME280;25875;48.202;16.334;2024-02-16T09:30:58;99448.66;;;11.63;53.46
40155;BME280;25875;48.202;16.334;2024-02-16T09:33:24;99465.59;;;11.76;53.63
40155;BME280;25875;48.202;16.334;2024-02-16T09:35:52;99454.28;;;11.73;52.75
40155;BME280;25875;48.202;16.334;2024-02-16T09:38:18;99473.00;;;11.55;52.55
40155;BME280;25875;48.202;16.334;2024-02-16T09:40:45;99451.81;;;11.70;52.53
40155;BME280;25875;48.202;16.334;2024-02-16T09:43:23;99450.44;;;11.78;52.61
40155;BME280;25875;48.202;16.334;2024-02-16T09:45:52;99448.25;;;11.85;51.77
40155;BME280;25875;48.202;16.334;2024-02-16T09:48:21;99456.28;;;11.99;51.50
40155;BME280;25875;48.202;16.334;2024-02-16T09:50:48;99448.78;;;12.22;51.39
40155;BME280;25875;48.202;16.334;2024-02-16T09:53:16;99450.81;;;12.32;51.07
40155;BME280;25875;48.202;16.334;2024-02-16T09:55:43;99443.41;;;12.37;50.94
40155;BME280;25875;48.202;16.334;2024-02-16T09:58:10;99439.50;;;12.57;50.68
40155;BME280;25875;48.202;16.334;2024-02-16T10:00:42;99450.16;;;12.71;50.72
40155;BME280;25875;48.202;16.334;2024-02-16T10:03:09;99445.59;;;12.73;49.90
40155;BME280;25875;48.202;16.334;2024-02-16T10:05:49;99448.44;;;12.84;49.99
40155;BME280;25875;48.202;16.334;2024-02-16T10:08:16;99468.94;;;12.97;49.91
40155;BME280;25875;48.202;16.334;2024-02-16T10:10:42;99447.84;;;12.94;49.35
40155;BME280;25875;48.202;16.334;2024-02-16T10:13:09;99457.75;;;12.77;49.24
40155;BME280;25875;48.202;16.334;2024-02-16T10:15:37;99452.88;;;12.98;49.44
40155;BME280;25875;48.202;16.334;2024-02-16T10:18:04;99431.31;;;12.89;48.65
40155;BME280;25875;48.202;16.334;2024-02-16T10:20:32;99397.34;;;12.65;48.92
40155;BME280;25875;48.202;16.334;2024-02-16T10:23:08;99446.38;;;13.16;48.88
40155;BME280;25875;48.202;16.334;2024-02-16T10:25:35;99451.03;;;13.13;48.65
40155;BME280;25875;48.202;16.334;2024-02-16T10:28:04;99436.88;;;13.12;48.42
40155;BME280;25875;48.202;16.334;2024-02-16T10:30:36;99455.19;;;13.31;48.09
40155;BME280;25875;48.202;16.334;2024-02-16T10:33:04;99438.56;;;13.28;48.33
40155;BME280;25875;48.202;16.334;2024-02-16T10:35:32;99444.44;;;13.33;48.17
40155;BME280;25875;48.202;16.334;2024-02-16T10:38:00;99444.91;;;13.39;48.27
40155;BME280;25875;48.202;16.334;2024-02-16T10:40:32;99433.78;;;13.47;47.95
40155;BME280;25875;48.202;16.334;2024-02-16T10:43:03;99435.63;;;13.59;48.16
40155;BME280;25875;48.202;16.334;2024-02-16T10:45:33;99440.66;;;13.64;47.97
40155;BME280;25875;48.202;16.334;2024-02-16T10:48:00;99432.47;;;13.67;47.52
40155;BME280;25875;48.202;16.334;2024-02-16T10:50:26;99427.78;;;13.70;47.16
40155;BME280;25875;48.202;16.334;2024-02-16T10:52:56;99442.56;;;13.62;47.20
40155;BME280;25875;48.202;16.334;2024-02-16T10:55:24;99454.81;;;13.64;47.41
40155;BME280;25875;48.202;16.334;2024-02-16T10:57:52;99424.41;;;13.81;47.13
40155;BME280;25875;48.202;16.334;2024-02-16T11:00:22;99429.28;;;13.74;47.50
40155;BME280;25875;48.202;16.334;2024-02-16T11:02:53;99423.66;;;13.79;46.55
40155;BME280;25875;48.202;16.334;2024-02-16T11:05:32;99364.44;;;13.48;46.76
40155;BME280;25875;48.202;16.334;2024-02-16T11:08:02;99408.63;;;13.91;46.79
40155;BME280;25875;48.202;16.334;2024-02-16T11:10:29;99421.00;;;13.92;46.45
40155;BME280;25875;48.202;16.334;2024-02-16T11:13:02;99320.94;;;13.35;46.63
40155;BME280;25875;48.202;16.334;2024-02-16T11:15:30;99371.78;;;13.45;46.72
40155;BME280;25875;48.202;16.334;2024-02-16T11:17:58;99423.66;;;13.79;46.74
40155;BME280;25875;48.202;16.334;2024-02-16T11:20:26;99411.72;;;13.85;46.68
40155;BME280;25875;48.202;16.334;2024-02-16T11:22:53;99419.72;;;13.85;46.99
40155;BME280;25875;48.202;16.334;2024-02-16T11:25:30;99419.50;;;13.88;46.50
40155;BME280;25875;48.202;16.334;2024-02-16T11:27:57;99450.41;;;13.90;46.09
40155;BME280;25875;48.202;16.334;2024-02-16T11:30:26;99418.88;;;13.84;46.57
40155;BME280;25875;48.202;16.334;2024-02-16T11:32:52;99422.91;;;13.77;46.59
40155;BME280;25875;48.202;16.334;2024-02-16T11:35:19;99447.72;;;13.77;46.49
40155;BME280;25875;48.202;16.334;2024-02-16T11:37:46;99366.84;;;13.39;46.75
40155;BME280;25875;48.202;16.334;2024-02-16T11:40:13;99409.38;;;13.93;46.86
40155;BME280;25875;48.202;16.334;2024-02-16T11:42:40;99405.13;;;13.90;46.58
40155;BME280;25875;48.202;16.334;2024-02-16T11:45:10;99393.31;;;14.07;46.43
40155;BME280;25875;48.202;16.334;2024-02-16T11:47:38;99391.28;;;14.10;46.34
40155;BME280;25875;48.202;16.334;2024-02-16T11:50:07;99417.19;;;14.21;46.19
40155;BME280;25875;48.202;16.334;2024-02-16T11:52:36;99425.94;;;14.23;46.22
40155;BME280;25875;48.202;16.334;2024-02-16T11:55:08;99406.22;;;14.38;46.16
40155;BME280;25875;48.202;16.334;2024-02-16T11:57:35;99395.88;;;14.34;45.87
40155;BME280;25875;48.202;16.334;2024-02-16T12:00:03;99395.13;;;14.32;46.02
40155;BME280;25875;48.202;16.334;2024-02-16T12:02:34;99400.47;;;14.19;46.04
40155;BME280;25875;48.202;16.334;2024-02-16T12:05:03;99402.06;;;14.22;46.21
40155;BME280;25875;48.202;16.334;2024-02-16T12:07:31;99396.94;;;14.19;46.04
40155;BME280;25875;48.202;16.334;2024-02-16T12:09:59;99385.31;;;14.07;46.22
40155;BME280;25875;48.202;16.334;2024-02-16T12:12:26;99398.31;;;14.24;46.12
40155;BME280;25875;48.202;16.334;2024-02-16T12:14:53;99383.28;;;14.23;45.97
40155;BME280;25875;48.202;16.334;2024-02-16T12:17:20;99388.31;;;14.28;45.78
40155;BME280;25875;48.202;16.334;2024-02-16T12:19:47;99394.69;;;14.38;46.01
40155;BME280;25875;48.202;16.334;2024-02-16T12:22:18;99391.38;;;14.47;45.55
40155;BME280;25875;48.202;16.334;2024-02-16T12:24:45;99384.88;;;14.38;45.82
40155;BME280;25875;48.202;16.334;2024-02-16T12:27:12;99403.34;;;14.41;45.86
40155;BME280;25875;48.202;16.334;2024-02-16T12:29:40;99394.06;;;14.22;46.27
40155;BME280;25875;48.202;16.334;2024-02-16T12:32:07;99376.47;;;14.32;46.16
40155;BME280;25875;48.202;16.334;2024-02-16T12:34:34;99390.00;;;14.41;45.74
40155;BME280;25875;48.202;16.334;2024-02-16T12:37:04;99395.00;;;14.46;46.07
40155;BME280;25875;48.202;16.334;2024-02-16T12:39:34;99314.66;;;13.89;46.06
40155;BME280;25875;48.202;16.334;2024-02-16T12:42:00;99389.69;;;14.33;46.39
40155;BME280;25875;48.202;16.334;2024-02-16T12:44:28;99372.53;;;14.25;46.07
40155;BME280;25875;48.202;16.334;2024-02-16T12:46:55;99415.28;;;14.36;46.27
40155;BME280;25875;48.202;16.334;2024-02-16T12:49:22;99372.84;;;14.33;46.24
40155;BME280;25875;48.202;16.334;2024-02-16T12:51:49;99377.75;;;14.26;46.00
40155;BME280;25875;48.202;16.334;2024-02-16T12:54:16;99399.41;;;14.22;46.37
40155;BME280;25875;48.202;16.334;2024-02-16T12:56:46;99382.34;;;14.24;46.21
40155;BME280;25875;48.202;16.334;2024-02-16T12:59:13;99391.81;;;14.28;46.48